createdAt,value
2019-01-08T00:01:13.853Z,101385.96
2019-01-08T00:03:44.220Z,101389.27
2019-01-08T00:06:14.716Z,101391.77
2019-01-08T00:08:45.038Z,101387.08
2019-01-08T00:11:15.680Z,101386.45
2019-01-08T00:13:46.070Z,101388.61
2019-01-08T00:16:16.834Z,101380.20
2019-01-08T00:18:47.213Z,101378.75
2019-01-08T00:21:17.711Z,101372.92
2019-01-08T00:23:48.407Z,101380.38
2019-01-08T00:26:18.782Z,101394.80
2019-01-08T00:28:49.167Z,101389.09
2019-01-08T00:31:19.589Z,101379.00
2019-01-08T00:33:50.390Z,101400.39
2019-01-08T00:36:20.935Z,101392.08
2019-01-08T00:38:51.260Z,101381.61
2019-01-08T00:41:21.608Z,101386.10
2019-01-08T00:43:52.090Z,101372.40
2019-01-08T00:46:22.432Z,101379.59
2019-01-08T00:48:52.793Z,101359.53
2019-01-08T00:51:23.184Z,101360.59
2019-01-08T00:53:53.563Z,101362.71
2019-01-08T00:56:24.217Z,101355.71
2019-01-08T00:58:54.561Z,101357.83
2019-01-08T01:01:27.143Z,101345.90
2019-01-08T01:03:57.585Z,101343.42
2019-01-08T01:06:28.064Z,101346.05
2019-01-08T01:09:00.507Z,101342.19
2019-01-08T01:11:30.853Z,101346.20
2019-01-08T01:14:01.187Z,101342.99
2019-01-08T01:16:31.584Z,101341.27
2019-01-08T01:19:04.056Z,101342.59
2019-01-08T01:21:34.363Z,101339.73
2019-01-08T01:24:04.670Z,101336.63
2019-01-08T01:26:35.071Z,101340.94
2019-01-08T01:29:05.508Z,101353.26
2019-01-08T01:31:35.883Z,101354.65
2019-01-08T01:34:06.923Z,101354.97
2019-01-08T01:36:37.271Z,101358.03
2019-01-08T01:39:07.832Z,101356.77
2019-01-08T01:41:38.267Z,101355.02
2019-01-08T01:44:08.850Z,101357.16
2019-01-08T01:46:39.178Z,101356.53
2019-01-08T01:49:09.759Z,101342.97
2019-01-08T01:51:40.078Z,101348.10
2019-01-08T01:54:10.521Z,101351.33
2019-01-08T01:56:40.827Z,101348.66
2019-01-08T01:59:11.160Z,101349.69
2019-01-08T02:01:41.487Z,101344.03
2019-01-08T02:04:11.922Z,101340.97
2019-01-08T02:06:42.284Z,101343.71
2019-01-08T02:09:13.483Z,101346.73
2019-01-08T02:11:43.869Z,101349.28
2019-01-08T02:14:14.285Z,101341.48
2019-01-08T02:16:44.564Z,101343.27
2019-01-08T02:19:14.876Z,101341.60
2019-01-08T02:21:45.397Z,101336.23
2019-01-08T02:24:15.745Z,101334.72
2019-01-08T02:26:46.449Z,101333.73
2019-01-08T02:29:16.889Z,101338.36
2019-01-08T02:31:47.191Z,101334.10
2019-01-08T02:34:17.513Z,101335.48
2019-01-08T02:36:47.868Z,101335.56
2019-01-08T02:39:18.949Z,101341.06
2019-01-08T02:41:49.335Z,101332.31
2019-01-08T02:44:19.863Z,101334.03
2019-01-08T02:46:50.721Z,101335.52
2019-01-08T02:49:21.091Z,101329.44
2019-01-08T02:51:54.465Z,101329.72
2019-01-08T02:54:24.818Z,101330.23
2019-01-08T02:56:55.240Z,101326.81
2019-01-08T02:59:25.538Z,101326.16
2019-01-08T03:02:13.354Z,101324.22
2019-01-08T03:04:45.943Z,101322.33
2019-01-08T03:07:16.241Z,101312.89
2019-01-08T03:09:46.551Z,101312.09
2019-01-08T03:12:16.981Z,101306.41
2019-01-08T03:14:47.313Z,101297.66
2019-01-08T03:17:19.612Z,101296.83
2019-01-08T03:19:51.396Z,101290.87
2019-01-08T03:22:21.711Z,101288.33
2019-01-08T03:24:52.063Z,101288.00
2019-01-08T03:27:22.370Z,101277.77
2019-01-08T03:29:53.017Z,101274.89
2019-01-08T03:32:23.334Z,101273.69
2019-01-08T03:34:53.650Z,101270.19
2019-01-08T03:37:24.248Z,101271.09
2019-01-08T03:39:54.566Z,101269.56
2019-01-08T03:42:24.917Z,101269.99
2019-01-08T03:44:55.272Z,101261.29
2019-01-08T03:47:25.619Z,101261.80
2019-01-08T03:49:55.976Z,101255.28
2019-01-08T03:52:26.329Z,101253.70
2019-01-08T03:54:56.675Z,101246.24
2019-01-08T03:57:27.005Z,101250.24
2019-01-08T03:59:57.373Z,101243.22
2019-01-08T04:02:27.753Z,101240.63
2019-01-08T04:04:58.045Z,101236.45
2019-01-08T04:07:28.452Z,101230.15
2019-01-08T04:09:58.876Z,101231.96
2019-01-08T04:12:29.212Z,101234.52
2019-01-08T04:14:59.534Z,101238.78
2019-01-08T04:17:32.099Z,101228.94
2019-01-08T04:20:02.457Z,101229.14
2019-01-08T04:22:32.871Z,101225.53
2019-01-08T04:25:03.201Z,101221.74
2019-01-08T04:27:47.643Z,101220.10
2019-01-08T04:30:20.194Z,101219.13
2019-01-08T04:32:50.575Z,101219.45
2019-01-08T04:35:20.865Z,101209.87
2019-01-08T04:37:51.269Z,101203.80
2019-01-08T04:40:21.631Z,101200.67
2019-01-08T04:42:52.086Z,101195.97
2019-01-08T04:45:22.428Z,101187.74
2019-01-08T04:47:52.770Z,101185.20
2019-01-08T04:50:23.156Z,101179.59
2019-01-08T04:52:53.484Z,101177.88
2019-01-08T04:55:24.682Z,101174.34
2019-01-08T04:57:55.363Z,101175.58
2019-01-08T05:00:25.707Z,101167.75
2019-01-08T05:02:56.068Z,101162.91
2019-01-08T05:05:26.634Z,101166.05
2019-01-08T05:07:57.018Z,101155.05
2019-01-08T05:10:27.384Z,101149.89
2019-01-08T05:12:57.710Z,101149.77
2019-01-08T05:15:28.109Z,101153.27
2019-01-08T05:18:01.662Z,101147.95
2019-01-08T05:20:32.289Z,101138.70
2019-01-08T05:23:03.900Z,101134.84
2019-01-08T05:25:34.232Z,101144.42
2019-01-08T05:28:04.503Z,101136.45
2019-01-08T05:30:35.630Z,101119.02
2019-01-08T05:33:05.969Z,101116.50
2019-01-08T05:35:36.349Z,101113.88
2019-01-08T05:38:06.920Z,101129.94
2019-01-08T05:40:37.830Z,101126.52
2019-01-08T05:43:11.733Z,101111.66
2019-01-08T05:45:42.248Z,101107.37
2019-01-08T05:48:12.715Z,101108.72
2019-01-08T05:50:43.079Z,101104.56
2019-01-08T05:53:13.449Z,101096.26
2019-01-08T05:55:43.828Z,101096.69
2019-01-08T05:58:14.452Z,101089.78
2019-01-08T06:00:44.842Z,101084.58
2019-01-08T06:03:15.199Z,101092.13
2019-01-08T06:05:46.178Z,101072.86
2019-01-08T06:08:19.692Z,101069.17
2019-01-08T06:10:50.032Z,101074.26
2019-01-08T06:13:20.340Z,101069.17
2019-01-08T06:15:50.683Z,101065.16
2019-01-08T06:18:21.046Z,101060.63
2019-01-08T06:20:51.416Z,101055.39
2019-01-08T06:23:21.851Z,101054.67
2019-01-08T06:25:52.247Z,101048.72
2019-01-08T06:28:22.554Z,101043.63
2019-01-08T06:30:52.864Z,101056.22
2019-01-08T06:33:23.479Z,101061.11
2019-01-08T06:35:54.299Z,101054.79
2019-01-08T06:38:24.645Z,101060.08
2019-01-08T06:40:57.791Z,101058.96
2019-01-08T06:43:27.191Z,101048.95
2019-01-08T06:45:57.609Z,101056.74
2019-01-08T06:48:27.987Z,101046.52
2019-01-08T06:50:58.408Z,101044.78
2019-01-08T06:53:30.779Z,101025.59
2019-01-08T06:56:02.825Z,101030.41
2019-01-08T06:58:33.166Z,101025.16
2019-01-08T07:01:03.783Z,101031.98
2019-01-08T07:03:34.227Z,101028.58
2019-01-08T07:06:04.580Z,101027.26
2019-01-08T07:08:34.938Z,101038.15
2019-01-08T07:11:05.387Z,101034.97
2019-01-08T07:13:35.711Z,101030.59
2019-01-08T07:16:08.135Z,101031.39
2019-01-08T07:18:38.478Z,101038.81
2019-01-08T07:21:08.866Z,101032.26
2019-01-08T07:23:39.186Z,101047.51
2019-01-08T07:26:09.621Z,101046.77
2019-01-08T07:28:40.001Z,101050.81
2019-01-08T07:31:10.629Z,101056.66
2019-01-08T07:33:43.361Z,101062.10
2019-01-08T07:36:13.832Z,101060.35
2019-01-08T07:38:44.149Z,101056.50
2019-01-08T07:41:16.599Z,101052.69
2019-01-08T07:43:47.034Z,101036.09
2019-01-08T07:46:18.792Z,101055.11
2019-01-08T07:48:49.231Z,101040.77
2019-01-08T07:51:19.586Z,101052.56
2019-01-08T07:53:49.960Z,101051.38
2019-01-08T07:56:20.311Z,101034.94
2019-01-08T07:58:50.893Z,101041.25
2019-01-08T08:01:21.296Z,101040.90
2019-01-08T08:03:51.616Z,101052.53
2019-01-08T08:06:22.064Z,101034.58
2019-01-08T08:08:52.365Z,101037.52
2019-01-08T08:11:22.751Z,101035.29
2019-01-08T08:13:53.060Z,101030.05
2019-01-08T08:16:23.424Z,101027.98
2019-01-08T08:18:53.773Z,101027.86
2019-01-08T08:21:24.149Z,101023.22
2019-01-08T08:23:54.448Z,101021.39
2019-01-08T08:26:24.818Z,101027.95
2019-01-08T08:28:55.158Z,101015.28
2019-01-08T08:31:25.510Z,101012.34
2019-01-08T08:33:55.949Z,101024.45
2019-01-08T08:36:29.320Z,101020.24
2019-01-08T08:38:59.837Z,101017.74
2019-01-08T08:41:30.786Z,101017.23
2019-01-08T08:44:01.182Z,101013.81
2019-01-08T08:46:31.506Z,101004.95
2019-01-08T08:49:01.926Z,101002.48
2019-01-08T08:51:32.275Z,101005.98
2019-01-08T08:54:02.649Z,100993.58
2019-01-08T08:56:33.001Z,100997.34
2019-01-08T08:59:03.347Z,101007.83
2019-01-08T09:01:33.705Z,100999.39
2019-01-08T09:04:04.063Z,100991.61
2019-01-08T09:06:34.420Z,101003.02
2019-01-08T09:09:07.749Z,101003.20
2019-01-08T09:11:38.071Z,101006.25
2019-01-08T09:14:08.403Z,101000.45
2019-01-08T09:16:38.721Z,101007.84
2019-01-08T09:19:09.074Z,101007.00
2019-01-08T09:21:39.419Z,101004.16
2019-01-08T09:24:09.785Z,101012.95
2019-01-08T09:26:40.206Z,101014.69
2019-01-08T09:29:10.535Z,101014.34
2019-01-08T09:31:40.878Z,101001.70
2019-01-08T09:34:13.153Z,101005.04
2019-01-08T09:36:43.523Z,101013.77
2019-01-08T09:39:13.788Z,101004.72
2019-01-08T09:41:44.426Z,101010.84
2019-01-08T09:44:14.570Z,101017.48
2019-01-08T09:46:44.883Z,101011.64
2019-01-08T09:49:18.072Z,101015.22
2019-01-08T09:51:48.432Z,101010.05
2019-01-08T09:54:18.788Z,101019.55
2019-01-08T09:56:52.168Z,101011.80
2019-01-08T09:59:22.489Z,101020.37
2019-01-08T10:01:52.897Z,101010.80
2019-01-08T10:04:23.215Z,101015.09
2019-01-08T10:06:53.547Z,101017.63
2019-01-08T10:09:23.921Z,101019.16
2019-01-08T10:11:54.250Z,101016.48
2019-01-08T10:14:24.627Z,101012.91
2019-01-08T10:16:54.967Z,101004.64
2019-01-08T10:19:26.750Z,101005.95
2019-01-08T10:21:57.073Z,100999.75
2019-01-08T10:24:27.564Z,100999.31
2019-01-08T10:26:57.861Z,100986.41
2019-01-08T10:29:28.209Z,100988.89
2019-01-08T10:31:58.532Z,100989.29
2019-01-08T10:34:28.879Z,100991.38
2019-01-08T10:36:59.212Z,100972.10
2019-01-08T10:39:29.549Z,100977.21
2019-01-08T10:41:59.872Z,100970.38
2019-01-08T10:44:30.197Z,100971.78
2019-01-08T10:47:00.513Z,100967.22
2019-01-08T10:49:30.844Z,100962.41
2019-01-08T10:52:02.316Z,100962.93
2019-01-08T10:54:33.236Z,100961.97
2019-01-08T10:57:03.598Z,100960.21
2019-01-08T10:59:34.012Z,100965.08
2019-01-08T11:02:04.349Z,100957.68
2019-01-08T11:04:34.673Z,100959.48
2019-01-08T11:07:05.272Z,100961.28
2019-01-08T11:09:35.591Z,100963.81
2019-01-08T11:12:05.953Z,100973.97
2019-01-08T11:14:36.324Z,100951.66
2019-01-08T11:17:06.635Z,100952.38
2019-01-08T11:19:37.053Z,100943.73
2019-01-08T11:22:07.450Z,100933.05
2019-01-08T11:24:37.814Z,100944.32
2019-01-08T11:27:08.206Z,100932.37
2019-01-08T11:29:39.084Z,100939.66
2019-01-08T11:32:11.688Z,100931.35
2019-01-08T11:34:42.072Z,100944.43
2019-01-08T11:37:12.453Z,100942.09
2019-01-08T11:39:42.808Z,100944.28
2019-01-08T11:42:13.077Z,100945.74
2019-01-08T11:44:43.531Z,100938.34
2019-01-08T11:47:15.293Z,100943.80
2019-01-08T11:49:45.580Z,100923.42
2019-01-08T11:52:16.166Z,100932.81
2019-01-08T11:54:47.473Z,100935.81
2019-01-08T11:57:19.531Z,100935.09
2019-01-08T11:59:49.864Z,100944.37
2019-01-08T12:02:20.367Z,100937.12
2019-01-08T12:04:50.717Z,100946.07
2019-01-08T12:07:21.071Z,100940.17
2019-01-08T12:09:51.449Z,100944.30
2019-01-08T12:12:21.791Z,100944.44
2019-01-08T12:14:52.187Z,100941.20
2019-01-08T12:17:22.585Z,100937.42
2019-01-08T12:19:53.048Z,100920.84
2019-01-08T12:22:23.394Z,100925.47
2019-01-08T12:24:53.962Z,100917.81
2019-01-08T12:27:24.344Z,100914.13
2019-01-08T12:29:54.714Z,100918.80
2019-01-08T12:32:25.025Z,100926.48
2019-01-08T12:34:56.215Z,100925.51
2019-01-08T12:37:26.536Z,100935.09
2019-01-08T12:39:56.876Z,100935.67
2019-01-08T12:42:27.254Z,100928.41
2019-01-08T12:44:57.609Z,100936.00
2019-01-08T12:47:27.864Z,100943.23
2019-01-08T12:49:58.203Z,100935.81
2019-01-08T12:52:28.541Z,100930.91
2019-01-08T12:54:58.889Z,100933.52
2019-01-08T12:57:37.257Z,100929.84
2019-01-08T13:00:09.042Z,100917.92
2019-01-08T13:02:39.401Z,100921.91
2019-01-08T13:05:11.767Z,100917.33
2019-01-08T13:07:42.102Z,100918.66
2019-01-08T13:10:12.496Z,100922.61
2019-01-08T13:12:42.849Z,100920.36
2019-01-08T13:15:13.170Z,100914.52
2019-01-08T13:17:43.605Z,100940.09
2019-01-08T13:20:14.801Z,100922.40
2019-01-08T13:22:47.494Z,100921.64
2019-01-08T13:25:17.844Z,100918.22
2019-01-08T13:27:48.193Z,100921.84
2019-01-08T13:30:19.408Z,100908.26
2019-01-08T13:32:49.762Z,100935.69
2019-01-08T13:35:20.141Z,100934.43
2019-01-08T13:37:50.536Z,100939.55
2019-01-08T13:40:22.072Z,100950.75
2019-01-08T13:42:55.195Z,100957.41
2019-01-08T13:45:25.608Z,100963.01
2019-01-08T13:47:56.000Z,100949.05
2019-01-08T13:50:26.356Z,100952.63
2019-01-08T13:52:56.739Z,100945.55
2019-01-08T13:55:27.346Z,100940.42
2019-01-08T13:57:58.056Z,100952.12
2019-01-08T14:00:28.429Z,100955.14
2019-01-08T14:02:58.784Z,100953.22
2019-01-08T14:05:29.129Z,100957.50
2019-01-08T14:07:59.511Z,100958.52
2019-01-08T14:10:30.025Z,100950.40
2019-01-08T14:13:00.869Z,100940.83
2019-01-08T14:15:31.405Z,100953.98
2019-01-08T14:18:01.842Z,100962.97
2019-01-08T14:20:32.229Z,100961.34
2019-01-08T14:23:02.613Z,100966.12
2019-01-08T14:25:35.712Z,100963.58
2019-01-08T14:28:06.009Z,100970.97
2019-01-08T14:30:36.530Z,100971.23
2019-01-08T14:33:06.926Z,100983.66
2019-01-08T14:35:37.496Z,100977.97
2019-01-08T14:38:07.807Z,101000.30
2019-01-08T14:40:38.185Z,100992.12
2019-01-08T14:43:14.159Z,101012.83
2019-01-08T14:45:43.659Z,101019.61
2019-01-08T14:48:13.968Z,100983.68
2019-01-08T14:50:44.363Z,100986.17
2019-01-08T14:53:14.658Z,100982.42
2019-01-08T14:55:45.024Z,100987.38
2019-01-08T14:58:15.397Z,101022.66
2019-01-08T15:00:45.777Z,101012.25
2019-01-08T15:03:16.608Z,100981.53
2019-01-08T15:05:47.056Z,100969.71
2019-01-08T15:08:17.367Z,100995.30
2019-01-08T15:10:47.751Z,101001.38
2019-01-08T15:13:18.180Z,100994.51
2019-01-08T15:15:48.572Z,100990.22
2019-01-08T15:18:18.895Z,101006.39
2019-01-08T15:20:50.098Z,100995.52
2019-01-08T15:23:20.471Z,100999.92
2019-01-08T15:25:51.143Z,101006.50
2019-01-08T15:28:21.558Z,101004.91
2019-01-08T15:30:51.882Z,101012.54
2019-01-08T15:33:22.242Z,101009.09
2019-01-08T15:35:52.568Z,101017.70
2019-01-08T15:38:24.460Z,101015.34
2019-01-08T15:40:54.888Z,101022.40
2019-01-08T15:43:25.330Z,101026.25
2019-01-08T15:45:55.641Z,101030.66
2019-01-08T15:48:25.965Z,101028.62
2019-01-08T15:50:56.369Z,101019.63
2019-01-08T15:53:26.822Z,101033.48
2019-01-08T15:55:57.142Z,101027.81
2019-01-08T15:58:27.602Z,101035.92
2019-01-08T16:00:57.982Z,101034.48
2019-01-08T16:03:28.389Z,101030.96
2019-01-08T16:05:58.758Z,101033.94
2019-01-08T16:08:30.672Z,101029.53
2019-01-08T16:11:01.090Z,101032.48
2019-01-08T16:13:31.540Z,101037.28
2019-01-08T16:16:01.946Z,101034.42
2019-01-08T16:18:32.290Z,101034.54
2019-01-08T16:21:02.605Z,101035.81
2019-01-08T16:23:33.094Z,101028.03
2019-01-08T16:26:03.531Z,101029.22
2019-01-08T16:28:33.926Z,101018.97
2019-01-08T16:31:04.549Z,101025.45
2019-01-08T16:33:35.035Z,101026.32
2019-01-08T16:36:05.476Z,101024.58
2019-01-08T16:38:35.894Z,101031.08
2019-01-08T16:41:06.212Z,101028.50
2019-01-08T16:43:36.839Z,101025.01
2019-01-08T16:46:07.203Z,101017.11
2019-01-08T16:48:37.699Z,101023.86
2019-01-08T16:51:08.223Z,101028.90
2019-01-08T16:53:41.525Z,101027.27
2019-01-08T16:56:10.790Z,101021.91
2019-01-08T16:58:41.293Z,101034.27
2019-01-08T17:01:11.718Z,101031.84
2019-01-08T17:03:42.053Z,101021.83
2019-01-08T17:06:14.644Z,101014.09
2019-01-08T17:08:45.054Z,101020.88
2019-01-08T17:11:15.531Z,101029.70
2019-01-08T17:13:45.950Z,101017.73
2019-01-08T17:16:17.292Z,101031.25
2019-01-08T17:18:47.862Z,101044.27
2019-01-08T17:21:18.222Z,101035.70
2019-01-08T17:23:48.683Z,101039.17
2019-01-08T17:26:19.011Z,101024.83
2019-01-08T17:28:50.376Z,101028.72
2019-01-08T17:31:20.863Z,101034.40
2019-01-08T17:33:51.245Z,101028.69
2019-01-08T17:36:21.719Z,101015.95
2019-01-08T17:38:52.203Z,101015.44
2019-01-08T17:41:22.588Z,101012.77
2019-01-08T17:43:52.985Z,101026.28
2019-01-08T17:46:23.508Z,101034.55
2019-01-08T17:48:54.119Z,101025.14
2019-01-08T17:51:24.403Z,101016.27
2019-01-08T17:53:54.914Z,101017.36
2019-01-08T17:56:25.318Z,101020.68
2019-01-08T17:59:04.920Z,101023.38
2019-01-08T18:01:38.028Z,101030.70
2019-01-08T18:04:08.873Z,101028.11
2019-01-08T18:06:39.292Z,101029.86
2019-01-08T18:09:09.888Z,101041.75
2019-01-08T18:11:40.296Z,101044.36
2019-01-08T18:14:10.747Z,101049.61
2019-01-08T18:16:41.081Z,101043.45
2019-01-08T18:19:11.875Z,101044.99
2019-01-08T18:21:44.072Z,101047.87
2019-01-08T18:24:17.352Z,101038.13
2019-01-08T18:26:47.741Z,101045.95
2019-01-08T18:29:18.117Z,101049.36
2019-01-08T18:31:48.507Z,101044.03
2019-01-08T18:34:18.853Z,101054.65
2019-01-08T18:36:49.193Z,101050.45
2019-01-08T18:39:19.859Z,101050.22
2019-01-08T18:41:50.211Z,101050.02
2019-01-08T18:44:20.705Z,101059.22
2019-01-08T18:46:51.090Z,101059.87
2019-01-08T18:49:21.541Z,101053.91
2019-01-08T18:51:51.908Z,101076.11
2019-01-08T18:54:22.306Z,101049.97
2019-01-08T18:56:52.641Z,101053.55
2019-01-08T18:59:23.022Z,101046.08
2019-01-08T19:01:53.469Z,101047.47
2019-01-08T19:04:26.103Z,101033.05
2019-01-08T19:06:59.542Z,101033.56
2019-01-08T19:09:43.397Z,101050.13
2019-01-08T19:12:16.363Z,101046.28
2019-01-08T19:14:46.781Z,101035.41
2019-01-08T19:17:17.200Z,101033.69
2019-01-08T19:19:47.626Z,101041.08
2019-01-08T19:22:17.990Z,101039.84
2019-01-08T19:24:48.423Z,101039.45
2019-01-08T19:27:20.637Z,101037.36
2019-01-08T19:29:51.185Z,101037.58
2019-01-08T19:32:22.367Z,101035.05
2019-01-08T19:34:52.857Z,101031.51
2019-01-08T19:37:25.138Z,101033.25
2019-01-08T19:39:57.773Z,101028.41
2019-01-08T19:42:30.257Z,101035.44
2019-01-08T19:45:02.931Z,101048.47
2019-01-08T19:47:36.502Z,101084.66
2019-01-08T19:50:11.416Z,101084.78
2019-01-08T19:52:43.788Z,101070.00
2019-01-08T19:55:15.192Z,101065.31
2019-01-08T19:57:46.330Z,101064.88
2019-01-08T20:00:27.722Z,101071.52
2019-01-08T20:02:59.587Z,101063.22
2019-01-08T20:05:35.398Z,101056.70
2019-01-08T20:08:14.111Z,101065.31
2019-01-08T20:10:49.293Z,101065.44
2019-01-08T20:13:21.912Z,101068.06
2019-01-08T20:15:55.552Z,101055.91
2019-01-08T20:18:25.912Z,101068.17
2019-01-08T20:20:57.152Z,101069.02
2019-01-08T20:23:29.291Z,101075.13
2019-01-08T20:25:59.660Z,101074.97
2019-01-08T20:28:30.312Z,101079.38
2019-01-08T20:31:00.630Z,101083.34
2019-01-08T20:33:37.617Z,101068.92
2019-01-08T20:36:09.269Z,101087.71
2019-01-08T20:38:41.315Z,101073.73
2019-01-08T20:41:13.951Z,101081.83
2019-01-08T20:43:44.445Z,101071.05
2019-01-08T20:46:14.822Z,101075.42
2019-01-08T20:48:45.272Z,101071.02
2019-01-08T20:51:15.664Z,101080.27
2019-01-08T20:53:46.064Z,101067.31
2019-01-08T20:56:19.765Z,101068.88
2019-01-08T20:58:50.307Z,101067.72
2019-01-08T21:01:21.236Z,101072.88
2019-01-08T21:03:51.633Z,101079.47
2019-01-08T21:06:22.104Z,101072.99
2019-01-08T21:08:52.455Z,101073.58
2019-01-08T21:11:22.856Z,101077.14
2019-01-08T21:13:54.315Z,101084.13
2019-01-08T21:16:24.761Z,101080.84
2019-01-08T21:19:01.108Z,101081.50
2019-01-08T21:21:34.137Z,101070.52
2019-01-08T21:24:08.222Z,101072.74
2019-01-08T21:26:39.507Z,101068.41
2019-01-08T21:29:13.861Z,101058.95
2019-01-08T21:31:44.694Z,101069.94
2019-01-08T21:34:16.778Z,101078.27
2019-01-08T21:36:54.788Z,101068.27
2019-01-08T21:39:25.407Z,101071.65
2019-01-08T21:41:57.340Z,101079.51
2019-01-08T21:44:36.159Z,101068.20
2019-01-08T21:47:12.505Z,101066.30
2019-01-08T21:49:42.971Z,101075.98
2019-01-08T21:52:13.253Z,101056.05
2019-01-08T21:54:45.042Z,101071.79
2019-01-08T21:57:15.352Z,101079.61
2019-01-08T21:59:48.680Z,101062.62
2019-01-08T22:02:19.060Z,101066.73
2019-01-08T22:04:53.300Z,101060.98
2019-01-08T22:07:21.523Z,101074.05
2019-01-08T22:09:51.894Z,101065.86
2019-01-08T22:12:22.243Z,101066.33
2019-01-08T22:14:52.616Z,101056.57
2019-01-08T22:17:23.038Z,101090.23
2019-01-08T22:19:53.485Z,101088.52
2019-01-08T22:22:23.810Z,101089.00
2019-01-08T22:24:54.214Z,101076.38
2019-01-08T22:27:24.667Z,101076.24
2019-01-08T22:29:55.007Z,101078.89
2019-01-08T22:32:25.440Z,101068.92
2019-01-08T22:35:02.125Z,101069.87
2019-01-08T22:37:27.872Z,101061.52
2019-01-08T22:39:58.256Z,101063.72
2019-01-08T22:42:28.656Z,101051.21
2019-01-08T22:44:59.401Z,101054.53
2019-01-08T22:47:29.784Z,101052.14
2019-01-08T22:50:00.301Z,101054.06
2019-01-08T22:52:30.660Z,101046.58
2019-01-08T22:55:01.103Z,101048.42
2019-01-08T22:57:31.407Z,101043.05
2019-01-08T23:00:01.841Z,101041.34
2019-01-08T23:02:32.379Z,101053.73
2019-01-08T23:05:10.516Z,101056.68
2019-01-08T23:07:34.694Z,101060.70
2019-01-08T23:10:05.351Z,101052.38
2019-01-08T23:12:35.705Z,101048.05
2019-01-08T23:15:06.486Z,101039.16
2019-01-08T23:17:36.779Z,101036.48
2019-01-08T23:20:07.481Z,101023.33
2019-01-08T23:22:37.774Z,101021.69
2019-01-08T23:25:08.470Z,101019.54
2019-01-08T23:27:38.794Z,101015.65
2019-01-08T23:30:09.344Z,101029.13
2019-01-08T23:32:39.652Z,101034.77
2019-01-08T23:35:10.416Z,101040.51
2019-01-08T23:37:40.713Z,101039.56
2019-01-08T23:40:11.080Z,101053.32
2019-01-08T23:42:41.713Z,101046.38
2019-01-08T23:45:12.063Z,101059.25
2019-01-08T23:47:42.397Z,101056.02
2019-01-08T23:50:12.695Z,101066.25
2019-01-08T23:53:05.568Z,101052.98
2019-01-08T23:55:40.148Z,101036.54
2019-01-08T23:58:13.326Z,101039.67
